createdAt,value
2022-12-11T00:00:08.269Z,99558.05
2022-12-11T00:05:31.222Z,99550.25
2022-12-11T00:10:37.853Z,99544.13
2022-12-11T00:15:41.228Z,99538.11
2022-12-11T00:20:44.441Z,99537.27
2022-12-11T00:25:48.266Z,99534.94
2022-12-11T00:30:51.374Z,99535.15
2022-12-11T00:35:54.585Z,99533.09
2022-12-11T00:41:00.769Z,99532.27
2022-12-11T00:46:04.179Z,99547.37
2022-12-11T00:51:08.320Z,99536.92
2022-12-11T00:56:18.391Z,99538.56
2022-12-11T01:01:24.439Z,99537.95
2022-12-11T01:06:28.602Z,99540.46
2022-12-11T01:11:31.499Z,99539.95
2022-12-11T01:16:34.709Z,99532.60
2022-12-11T01:21:37.717Z,99526.73
2022-12-11T01:26:40.829Z,99530.21
2022-12-11T01:31:43.831Z,99520.70
2022-12-11T01:36:46.737Z,99513.81
2022-12-11T01:41:49.948Z,99515.11
2022-12-11T01:46:53.666Z,99525.20
2022-12-11T01:52:06.818Z,99523.71
2022-12-11T01:57:11.750Z,99521.11
2022-12-11T02:02:26.317Z,99516.27
2022-12-11T02:07:51.741Z,99514.73
2022-12-11T02:13:03.039Z,99507.61
2022-12-11T02:18:22.671Z,99503.52
2022-12-11T02:23:59.063Z,99505.10
2022-12-11T02:29:06.644Z,99504.81
2022-12-11T02:34:21.560Z,99502.42
2022-12-11T02:39:27.244Z,99509.02
2022-12-11T02:44:34.179Z,99505.59
2022-12-11T02:49:39.077Z,99494.73
2022-12-11T02:54:45.159Z,99480.47
2022-12-11T02:59:48.266Z,99485.92
2022-12-11T03:04:51.845Z,99485.55
2022-12-11T03:09:55.199Z,99475.99
2022-12-11T03:15:02.063Z,99480.73
2022-12-11T03:20:08.151Z,99482.79
2022-12-11T03:25:50.915Z,99482.85
2022-12-11T03:30:54.448Z,99475.67
2022-12-11T03:36:04.156Z,99465.40
2022-12-11T03:41:09.560Z,99465.30
2022-12-11T03:46:15.286Z,99462.64
2022-12-11T03:51:19.155Z,99455.98
2022-12-11T03:56:24.210Z,99463.05
2022-12-11T04:01:27.675Z,99465.08
2022-12-11T04:06:30.938Z,99451.02
2022-12-11T04:11:37.004Z,99443.45
2022-12-11T04:16:39.920Z,99447.34
2022-12-11T04:22:01.360Z,99451.85
2022-12-11T04:27:04.470Z,99451.69
2022-12-11T04:32:07.474Z,99448.45
2022-12-11T04:37:10.479Z,99444.61
2022-12-11T04:42:13.699Z,99450.98
2022-12-11T04:47:17.009Z,99449.10
2022-12-11T04:52:20.013Z,99446.58
2022-12-11T04:57:23.120Z,99447.27
2022-12-11T05:02:27.166Z,99442.33
2022-12-11T05:07:30.567Z,99442.84
2022-12-11T05:12:33.981Z,99435.80
2022-12-11T05:17:36.987Z,99430.28
2022-12-11T05:22:39.994Z,99435.96
2022-12-11T05:27:43.105Z,99434.86
2022-12-11T05:32:46.620Z,99432.90
2022-12-11T05:37:49.734Z,99431.19
2022-12-11T05:42:52.736Z,99429.77
2022-12-11T05:47:55.845Z,99435.92
2022-12-11T05:52:58.853Z,99439.21
2022-12-11T05:58:01.858Z,99444.06
2022-12-11T06:03:04.906Z,99443.73
2022-12-11T06:08:08.358Z,99443.66
2022-12-11T06:13:11.490Z,99444.21
2022-12-11T06:18:14.395Z,99439.91
2022-12-11T06:23:17.302Z,99429.86
2022-12-11T06:28:20.305Z,99429.30
2022-12-11T06:33:23.413Z,99433.55
2022-12-11T06:38:26.422Z,99439.37
2022-12-11T06:43:29.426Z,99434.05
2022-12-11T06:48:33.118Z,99434.51
2022-12-11T06:53:36.929Z,99442.23
2022-12-11T06:58:41.076Z,99430.42
2022-12-11T07:03:44.529Z,99434.16
2022-12-11T07:08:47.535Z,99429.78
2022-12-11T07:13:50.848Z,99424.91
2022-12-11T07:18:53.865Z,99424.42
2022-12-11T07:23:56.959Z,99423.34
2022-12-11T07:29:00.480Z,99414.05
2022-12-11T07:34:06.359Z,99405.02
2022-12-11T07:39:12.027Z,99401.30
2022-12-11T07:44:15.141Z,99398.84
2022-12-11T07:49:18.136Z,99404.11
2022-12-11T07:54:21.857Z,99407.16
2022-12-11T07:59:24.880Z,99410.37
2022-12-11T08:04:27.868Z,99416.56
2022-12-11T08:09:31.190Z,99414.45
2022-12-11T08:14:34.298Z,99416.19
2022-12-11T08:19:37.305Z,99410.54
2022-12-11T08:24:40.719Z,99406.23
2022-12-11T08:29:43.826Z,99407.52
2022-12-11T08:34:46.831Z,99405.39
2022-12-11T08:39:49.836Z,99407.11
2022-12-11T08:44:52.842Z,99395.39
2022-12-11T08:49:56.975Z,99390.52
2022-12-11T08:54:59.983Z,99383.17
2022-12-11T09:00:03.404Z,99381.75
2022-12-11T09:05:08.359Z,99374.04
2022-12-11T09:10:11.553Z,99379.11
2022-12-11T09:15:14.778Z,99373.27
2022-12-11T09:20:18.091Z,99366.27
2022-12-11T09:25:21.135Z,99365.80
2022-12-11T09:30:24.206Z,99351.40
2022-12-11T09:35:27.895Z,99348.67
2022-12-11T09:40:32.556Z,99329.55
2022-12-11T09:45:35.580Z,99322.48
2022-12-11T09:50:40.150Z,99313.12
2022-12-11T09:56:05.141Z,99307.98
2022-12-11T10:01:20.572Z,99302.52
2022-12-11T10:06:35.643Z,99307.23
2022-12-11T10:11:54.461Z,99300.91
2022-12-11T10:17:05.196Z,99296.34
2022-12-11T10:22:19.072Z,99286.72
2022-12-11T10:27:26.973Z,99281.14
2022-12-11T10:32:50.055Z,99281.44
2022-12-11T10:37:58.305Z,99279.56
2022-12-11T10:43:01.268Z,99267.34
2022-12-11T10:48:11.515Z,99267.34
2022-12-11T10:53:21.433Z,99266.84
2022-12-11T10:58:28.847Z,99268.36
2022-12-11T11:03:33.687Z,99258.30
2022-12-11T11:08:44.271Z,99253.20
2022-12-11T11:13:52.835Z,99244.55
2022-12-11T11:18:58.345Z,99233.02
2022-12-11T11:24:01.484Z,99222.64
2022-12-11T11:29:04.887Z,99218.45
2022-12-11T11:34:10.950Z,99212.52
2022-12-11T11:39:28.630Z,99215.80
2022-12-11T11:44:42.182Z,99223.06
2022-12-11T11:50:16.012Z,99213.16
2022-12-11T11:55:45.565Z,99197.88
2022-12-11T12:00:49.322Z,99197.48
2022-12-11T12:06:18.080Z,99198.52
2022-12-11T12:11:32.653Z,99201.86
2022-12-11T12:16:59.859Z,99196.96
2022-12-11T12:22:21.061Z,99186.54
2022-12-11T12:27:54.022Z,99179.25
2022-12-11T12:33:09.158Z,99175.90
2022-12-11T12:38:23.672Z,99175.80
2022-12-11T12:43:58.940Z,99163.60
2022-12-11T12:49:04.347Z,99158.19
2022-12-11T12:54:12.599Z,99154.52
2022-12-11T12:59:24.381Z,99144.64
2022-12-11T13:04:59.461Z,99140.48
2022-12-11T13:10:24.382Z,99133.80
2022-12-11T13:15:30.565Z,99126.83
2022-12-11T13:20:34.904Z,99124.48
2022-12-11T13:25:55.927Z,99126.78
2022-12-11T13:31:16.294Z,99123.84
2022-12-11T13:36:35.366Z,99123.14
2022-12-11T13:41:39.037Z,99123.36
2022-12-11T13:46:44.291Z,99117.82
2022-12-11T13:51:59.144Z,99117.55
2022-12-11T13:57:16.605Z,99115.19
2022-12-11T14:02:40.514Z,99109.41
2022-12-11T14:07:49.225Z,99100.19
2022-12-11T14:13:33.862Z,99092.87
2022-12-11T14:18:37.484Z,99089.50
2022-12-11T14:23:40.684Z,99081.89
2022-12-11T14:28:44.205Z,99067.40
2022-12-11T14:33:56.243Z,99065.04
2022-12-11T14:39:04.993Z,99055.70
2022-12-11T14:44:14.530Z,99054.38
2022-12-11T14:49:21.324Z,99047.97
2022-12-11T14:54:30.262Z,99041.02
2022-12-11T14:59:41.571Z,99036.63
2022-12-11T15:04:45.671Z,99031.14
2022-12-11T15:09:51.866Z,99026.58
2022-12-11T15:14:58.618Z,99025.45
2022-12-11T15:20:20.839Z,99023.61
2022-12-11T15:25:27.221Z,99023.22
2022-12-11T15:30:34.491Z,99020.31
2022-12-11T15:35:40.086Z,99015.76
2022-12-11T15:40:43.201Z,99000.59
2022-12-11T15:45:46.460Z,98999.08
2022-12-11T15:50:49.927Z,98996.88
2022-12-11T15:55:53.885Z,98992.13
2022-12-11T16:00:57.986Z,98988.87
2022-12-11T16:06:01.104Z,98987.24
2022-12-11T16:11:04.409Z,98994.29
2022-12-11T16:16:07.873Z,98992.83
2022-12-11T16:21:11.039Z,98987.46
2022-12-11T16:26:15.897Z,98978.95
2022-12-11T16:31:18.911Z,98973.07
2022-12-11T16:36:22.528Z,98961.24
2022-12-11T16:41:25.518Z,98957.33
2022-12-11T16:46:28.553Z,98960.04
2022-12-11T16:51:31.640Z,98962.29
2022-12-11T16:56:34.748Z,98965.68
2022-12-11T17:01:37.815Z,98957.82
2022-12-11T17:06:41.475Z,98952.99
2022-12-11T17:11:44.785Z,98949.66
2022-12-11T17:16:48.393Z,98948.71
2022-12-11T17:21:52.033Z,98951.14
2022-12-11T17:26:56.043Z,98944.36
2022-12-11T17:31:59.587Z,98947.28
2022-12-11T17:37:02.685Z,98952.48
2022-12-11T17:42:06.676Z,98951.51
2022-12-11T17:47:12.185Z,98951.38
2022-12-11T17:52:15.393Z,98952.05
2022-12-11T17:57:18.399Z,98941.58
2022-12-11T18:02:21.510Z,98937.88
2022-12-11T18:07:25.423Z,98936.00
2022-12-11T18:12:31.208Z,98940.57
2022-12-11T18:17:35.550Z,98937.98
2022-12-11T18:22:38.860Z,98925.67
2022-12-11T18:27:41.964Z,98925.48
2022-12-11T18:32:45.381Z,98929.95
2022-12-11T18:37:48.493Z,98929.98
2022-12-11T18:42:51.493Z,98919.90
2022-12-11T18:47:56.658Z,98919.45
2022-12-11T18:52:59.659Z,98912.70
2022-12-11T18:58:03.388Z,98917.16
2022-12-11T19:03:07.316Z,98917.12
2022-12-11T19:08:12.659Z,98924.92
2022-12-11T19:13:15.881Z,98921.70
2022-12-11T19:18:18.997Z,98914.28
2022-12-11T19:23:23.326Z,98904.59
2022-12-11T19:28:26.538Z,98904.05
2022-12-11T19:33:29.873Z,98898.10
2022-12-11T19:38:33.274Z,98896.29
2022-12-11T19:43:37.001Z,98896.05
2022-12-11T19:48:41.864Z,98889.77
2022-12-11T19:53:45.971Z,98888.69
2022-12-11T19:58:49.188Z,98895.60
2022-12-11T20:03:53.724Z,98895.60
2022-12-11T20:08:56.775Z,98891.31
2022-12-11T20:14:00.154Z,98889.13
2022-12-11T20:19:05.205Z,98879.30
2022-12-11T20:24:09.752Z,98869.30
2022-12-11T20:29:13.467Z,98871.05
2022-12-11T20:34:16.783Z,98867.88
2022-12-11T20:39:19.894Z,98865.72
2022-12-11T20:44:22.903Z,98856.42
2022-12-11T20:49:26.119Z,98855.67
2022-12-11T20:54:29.232Z,98847.89
2022-12-11T20:59:32.331Z,98849.33
2022-12-11T21:04:41.075Z,98847.38
2022-12-11T21:09:43.970Z,98841.70
2022-12-11T21:14:46.979Z,98839.61
2022-12-11T21:19:51.423Z,98824.68
2022-12-11T21:24:54.427Z,98822.26
2022-12-11T21:29:57.736Z,98825.11
2022-12-11T21:35:01.203Z,98820.12
2022-12-11T21:40:05.085Z,98811.68
2022-12-11T21:45:52.175Z,98803.04
2022-12-11T21:50:31.781Z,98797.14
2022-12-11T21:55:34.791Z,98786.63
2022-12-11T22:00:39.204Z,98780.21
2022-12-11T22:05:42.239Z,98775.33
2022-12-11T22:10:45.561Z,98764.95
2022-12-11T22:15:48.980Z,98764.13
2022-12-11T22:20:52.068Z,98764.72
2022-12-11T22:25:55.055Z,98761.36
2022-12-11T22:30:58.221Z,98765.02
2022-12-11T22:36:01.297Z,98761.81
2022-12-11T22:41:25.502Z,98754.70
2022-12-11T22:46:30.148Z,98745.52
2022-12-11T22:51:33.467Z,98738.04
2022-12-11T22:56:36.670Z,98737.73
2022-12-11T23:01:39.884Z,98736.73
2022-12-11T23:06:43.088Z,98734.56
2022-12-11T23:11:46.204Z,98727.23
2022-12-11T23:16:49.376Z,98726.05
2022-12-11T23:21:53.040Z,98729.34
2022-12-11T23:26:56.137Z,98725.44
2022-12-11T23:31:59.247Z,98723.06
2022-12-11T23:37:02.416Z,98722.41
2022-12-11T23:42:05.671Z,98722.45
2022-12-11T23:47:08.573Z,98722.65
2022-12-11T23:52:12.506Z,98726.98
2022-12-11T23:57:16.125Z,98725.11
